sensor_id;sensor_type;location;lat;lon;timestamp;pressure;altitude;pressure_sealevel;temperature;humidity
9750;BME280;4914;43.218;27.908;2022-10-16T00:01:08;101518.75;;;13.64;100.00
9750;BME280;4914;43.218;27.908;2022-10-16T00:03:36;101528.22;;;13.68;100.00
9750;BME280;4914;43.218;27.908;2022-10-16T00:06:04;101513.88;;;13.58;100.00
9750;BME280;4914;43.218;27.908;2022-10-16T00:08:31;101525.03;;;13.52;100.00
9750;BME280;4914;43.218;27.908;2022-10-16T00:11:01;101527.19;;;13.47;100.00
9750;BME280;4914;43.218;27.908;2022-10-16T00:13:29;101528.59;;;13.40;100.00
9750;BME280;4914;43.218;27.908;2022-10-16T00:15:57;101532.41;;;13.25;100.00
9750;BME280;4914;43.218;27.908;2022-10-16T00:18:24;101535.72;;;13.28;100.00
9750;BME280;4914;43.218;27.908;2022-10-16T00:20:51;101534.22;;;13.24;100.00
9750;BME280;4914;43.218;27.908;2022-10-16T00:23:18;101534.38;;;13.34;100.00
9750;BME280;4914;43.218;27.908;2022-10-16T00:25:54;101535.72;;;13.28;100.00
9750;BME280;4914;43.218;27.908;2022-10-16T00:28:24;101531.03;;;13.19;100.00
9750;BME280;4914;43.218;27.908;2022-10-16T00:30:50;101535.53;;;13.19;100.00
9750;BME280;4914;43.218;27.908;2022-10-16T00:33:17;101534.66;;;13.05;100.00
9750;BME280;4914;43.218;27.908;2022-10-16T00:35:44;101527.88;;;13.01;100.00
9750;BME280;4914;43.218;27.908;2022-10-16T00:38:11;101524.47;;;12.99;100.00
9750;BME280;4914;43.218;27.908;2022-10-16T00:40:38;101522.69;;;12.87;100.00
9750;BME280;4914;43.218;27.908;2022-10-16T00:43:12;101528.44;;;12.81;100.00
9750;BME280;4914;43.218;27.908;2022-10-16T00:45:40;101527.06;;;12.88;100.00
9750;BME280;4914;43.218;27.908;2022-10-16T00:48:11;101524.81;;;12.82;100.00
9750;BME280;4914;43.218;27.908;2022-10-16T00:50:39;101513.88;;;12.74;100.00
9750;BME280;4914;43.218;27.908;2022-10-16T00:53:09;101520.06;;;12.62;100.00
9750;BME280;4914;43.218;27.908;2022-10-16T00:55:36;101524.44;;;12.63;100.00
9750;BME280;4914;43.218;27.908;2022-10-16T00:58:03;101523.72;;;12.61;100.00
9750;BME280;4914;43.218;27.908;2022-10-16T01:00:30;101524.44;;;12.63;100.00
9750;BME280;4914;43.218;27.908;2022-10-16T01:03:00;101527.31;;;12.60;100.00
9750;BME280;4914;43.218;27.908;2022-10-16T01:05:31;101527.00;;;12.52;100.00
9750;BME280;4914;43.218;27.908;2022-10-16T01:08:09;101520.09;;;12.49;100.00
9750;BME280;4914;43.218;27.908;2022-10-16T01:10:43;101535.00;;;12.52;100.00
9750;BME280;4914;43.218;27.908;2022-10-16T01:13:18;101534.59;;;12.45;100.00
9750;BME280;4914;43.218;27.908;2022-10-16T01:15:50;101544.59;;;12.54;100.00
9750;BME280;4914;43.218;27.908;2022-10-16T01:18:27;101546.63;;;12.51;100.00
9750;BME280;4914;43.218;27.908;2022-10-16T01:21:02;101551.84;;;12.40;100.00
9750;BME280;4914;43.218;27.908;2022-10-16T01:23:38;101544.69;;;12.53;100.00
9750;BME280;4914;43.218;27.908;2022-10-16T01:26:24;101554.94;;;12.59;100.00
9750;BME280;4914;43.218;27.908;2022-10-16T01:29:03;101560.91;;;12.50;100.00
9750;BME280;4914;43.218;27.908;2022-10-16T01:31:34;101562.09;;;12.46;100.00
9750;BME280;4914;43.218;27.908;2022-10-16T01:34:05;101569.94;;;12.47;100.00
9750;BME280;4914;43.218;27.908;2022-10-16T01:36:38;101565.59;;;12.34;100.00
9750;BME280;4914;43.218;27.908;2022-10-16T01:39:09;101572.84;;;12.32;100.00
9750;BME280;4914;43.218;27.908;2022-10-16T01:41:40;101571.97;;;12.44;100.00
9750;BME280;4914;43.218;27.908;2022-10-16T01:44:14;101573.78;;;12.43;100.00
9750;BME280;4914;43.218;27.908;2022-10-16T01:46:46;101581.25;;;12.38;100.00
9750;BME280;4914;43.218;27.908;2022-10-16T01:49:16;101577.19;;;12.33;100.00
9750;BME280;4914;43.218;27.908;2022-10-16T01:51:46;101576.16;;;12.22;100.00
9750;BME280;4914;43.218;27.908;2022-10-16T01:54:16;101571.94;;;12.18;100.00
9750;BME280;4914;43.218;27.908;2022-10-16T01:56:45;101563.34;;;12.15;100.00
9750;BME280;4914;43.218;27.908;2022-10-16T01:59:17;101569.50;;;12.03;100.00
9750;BME280;4914;43.218;27.908;2022-10-16T02:01:48;101572.25;;;12.01;100.00
9750;BME280;4914;43.218;27.908;2022-10-16T02:04:19;101569.59;;;12.01;100.00
9750;BME280;4914;43.218;27.908;2022-10-16T02:06:47;101568.09;;;11.97;100.00
9750;BME280;4914;43.218;27.908;2022-10-16T02:09:14;101566.72;;;12.04;100.00
9750;BME280;4914;43.218;27.908;2022-10-16T02:11:42;101573.75;;;12.05;100.00
9750;BME280;4914;43.218;27.908;2022-10-16T02:14:09;101572.81;;;12.06;100.00
9750;BME280;4914;43.218;27.908;2022-10-16T02:16:39;101572.59;;;12.09;100.00
9750;BME280;4914;43.218;27.908;2022-10-16T02:19:08;101564.19;;;12.15;100.00
9750;BME280;4914;43.218;27.908;2022-10-16T02:21:39;101564.41;;;12.12;100.00
9750;BME280;4914;43.218;27.908;2022-10-16T02:24:13;101565.22;;;12.00;100.00
9750;BME280;4914;43.218;27.908;2022-10-16T02:26:50;101571.00;;;12.07;100.00
9750;BME280;4914;43.218;27.908;2022-10-16T02:29:23;101569.59;;;12.01;100.00
9750;BME280;4914;43.218;27.908;2022-10-16T02:31:54;101582.69;;;11.92;100.00
9750;BME280;4914;43.218;27.908;2022-10-16T02:34:22;101577.03;;;11.96;100.00
9750;BME280;4914;43.218;27.908;2022-10-16T02:36:51;101573.22;;;12.00;100.00
9750;BME280;4914;43.218;27.908;2022-10-16T02:39:20;101581.09;;;12.02;100.00
9750;BME280;4914;43.218;27.908;2022-10-16T02:41:47;101587.06;;;12.05;100.00
9750;BME280;4914;43.218;27.908;2022-10-16T02:44:15;101586.44;;;12.02;100.00
9750;BME280;4914;43.218;27.908;2022-10-16T02:46:42;101580.69;;;12.08;100.00
9750;BME280;4914;43.218;27.908;2022-10-16T02:49:10;101580.69;;;12.08;100.00
9750;BME280;4914;43.218;27.908;2022-10-16T02:51:37;101588.47;;;12.11;100.00
9750;BME280;4914;43.218;27.908;2022-10-16T02:54:04;101588.91;;;12.17;100.00
9750;BME280;4914;43.218;27.908;2022-10-16T02:56:31;101597.84;;;12.16;100.00
9750;BME280;4914;43.218;27.908;2022-10-16T02:58:58;101597.63;;;12.19;100.00
9750;BME280;4914;43.218;27.908;2022-10-16T03:01:25;101593.69;;;12.12;100.00
9750;BME280;4914;43.218;27.908;2022-10-16T03:03:52;101587.63;;;12.23;100.00
9750;BME280;4914;43.218;27.908;2022-10-16T03:06:20;101583.69;;;12.29;100.00
9750;BME280;4914;43.218;27.908;2022-10-16T03:08:47;101581.25;;;12.26;100.00
9750;BME280;4914;43.218;27.908;2022-10-16T03:11:14;101583.81;;;12.27;100.00
9750;BME280;4914;43.218;27.908;2022-10-16T03:13:41;101590.00;;;12.40;100.00
9750;BME280;4914;43.218;27.908;2022-10-16T03:16:08;101581.47;;;12.48;100.00
9750;BME280;4914;43.218;27.908;2022-10-16T03:18:34;101585.94;;;12.47;100.00
9750;BME280;4914;43.218;27.908;2022-10-16T03:21:01;101588.06;;;12.55;100.00
9750;BME280;4914;43.218;27.908;2022-10-16T03:23:30;101585.81;;;12.61;100.00
9750;BME280;4914;43.218;27.908;2022-10-16T03:25:57;101589.88;;;12.67;100.00
9750;BME280;4914;43.218;27.908;2022-10-16T03:28:24;101592.00;;;12.62;100.00
9750;BME280;4914;43.218;27.908;2022-10-16T03:30:51;101596.81;;;12.57;100.00
9750;BME280;4914;43.218;27.908;2022-10-16T03:33:18;101595.13;;;12.56;100.00
9750;BME280;4914;43.218;27.908;2022-10-16T03:35:50;101592.13;;;12.60;100.00
9750;BME280;4914;43.218;27.908;2022-10-16T03:38:17;101595.13;;;12.56;100.00
9750;BME280;4914;43.218;27.908;2022-10-16T03:40:46;101602.44;;;12.52;100.00
9750;BME280;4914;43.218;27.908;2022-10-16T03:43:13;101601.09;;;12.47;100.00
9750;BME280;4914;43.218;27.908;2022-10-16T03:45:40;101609.28;;;12.44;100.00
9750;BME280;4914;43.218;27.908;2022-10-16T03:48:06;101611.22;;;12.42;100.00
9750;BME280;4914;43.218;27.908;2022-10-16T03:50:33;101611.94;;;12.44;100.00
9750;BME280;4914;43.218;27.908;2022-10-16T03:53:00;101606.59;;;12.44;100.00
9750;BME280;4914;43.218;27.908;2022-10-16T03:55:27;101605.97;;;12.40;100.00
9750;BME280;4914;43.218;27.908;2022-10-16T03:57:55;101610.84;;;12.34;100.00
9750;BME280;4914;43.218;27.908;2022-10-16T04:00:22;101609.16;;;12.33;100.00
9750;BME280;4914;43.218;27.908;2022-10-16T04:02:49;101610.66;;;12.37;100.00
9750;BME280;4914;43.218;27.908;2022-10-16T04:05:16;101612.34;;;12.38;100.00
9750;BME280;4914;43.218;27.908;2022-10-16T04:07:42;101608.19;;;12.34;100.00
9750;BME280;4914;43.218;27.908;2022-10-16T04:10:09;101620.88;;;12.30;100.00
9750;BME280;4914;43.218;27.908;2022-10-16T04:12:36;101612.34;;;12.25;100.00
9750;BME280;4914;43.218;27.908;2022-10-16T04:15:05;101617.34;;;12.30;100.00
9750;BME280;4914;43.218;27.908;2022-10-16T04:17:32;101623.84;;;12.26;100.00
9750;BME280;4914;43.218;27.908;2022-10-16T04:19:59;101620.66;;;12.20;100.00
9750;BME280;4914;43.218;27.908;2022-10-16T04:22:26;101623.53;;;12.17;100.00
9750;BME280;4914;43.218;27.908;2022-10-16T04:24:52;101630.13;;;12.24;100.00
9750;BME280;4914;43.218;27.908;2022-10-16T04:27:19;101625.75;;;12.23;100.00
9750;BME280;4914;43.218;27.908;2022-10-16T04:29:46;101623.63;;;12.16;100.00
9750;BME280;4914;43.218;27.908;2022-10-16T04:32:14;101631.69;;;12.14;100.00
9750;BME280;4914;43.218;27.908;2022-10-16T04:34:41;101626.59;;;12.11;100.00
9750;BME280;4914;43.218;27.908;2022-10-16T04:37:08;101637.34;;;12.10;100.00
9750;BME280;4914;43.218;27.908;2022-10-16T04:39:35;101630.53;;;12.18;100.00
9750;BME280;4914;43.218;27.908;2022-10-16T04:42:02;101635.31;;;12.13;100.00
9750;BME280;4914;43.218;27.908;2022-10-16T04:44:29;101643.19;;;12.02;100.00
9750;BME280;4914;43.218;27.908;2022-10-16T04:46:55;101649.69;;;11.98;100.00
9750;BME280;4914;43.218;27.908;2022-10-16T04:49:24;101647.69;;;12.14;100.00
9750;BME280;4914;43.218;27.908;2022-10-16T04:51:50;101646.41;;;12.07;100.00
9750;BME280;4914;43.218;27.908;2022-10-16T04:54:17;101638.97;;;12.12;100.00
9750;BME280;4914;43.218;27.908;2022-10-16T04:56:44;101642.34;;;12.14;100.00
9750;BME280;4914;43.218;27.908;2022-10-16T04:59:13;101649.22;;;12.44;100.00
9750;BME280;4914;43.218;27.908;2022-10-16T05:01:40;101644.94;;;12.29;100.00
9750;BME280;4914;43.218;27.908;2022-10-16T05:04:07;101667.97;;;12.42;100.00
9750;BME280;4914;43.218;27.908;2022-10-16T05:06:36;101661.19;;;12.51;100.00
9750;BME280;4914;43.218;27.908;2022-10-16T05:09:04;101649.44;;;12.41;100.00
9750;BME280;4914;43.218;27.908;2022-10-16T05:11:31;101635.69;;;12.21;100.00
9750;BME280;4914;43.218;27.908;2022-10-16T05:13:58;101660.44;;;12.49;100.00
9750;BME280;4914;43.218;27.908;2022-10-16T05:16:25;101676.50;;;12.47;100.00
9750;BME280;4914;43.218;27.908;2022-10-16T05:18:52;101670.53;;;12.44;100.00
9750;BME280;4914;43.218;27.908;2022-10-16T05:21:19;101670.81;;;12.66;100.00
9750;BME280;4914;43.218;27.908;2022-10-16T05:23:50;101678.03;;;12.64;100.00
9750;BME280;4914;43.218;27.908;2022-10-16T05:26:16;101688.69;;;12.64;100.00
9750;BME280;4914;43.218;27.908;2022-10-16T05:28:44;101691.91;;;12.69;100.00
9750;BME280;4914;43.218;27.908;2022-10-16T05:31:10;101694.91;;;12.90;100.00
9750;BME280;4914;43.218;27.908;2022-10-16T05:33:37;101698.41;;;13.03;100.00
9750;BME280;4914;43.218;27.908;2022-10-16T05:36:06;101711.75;;;13.16;100.00
9750;BME280;4914;43.218;27.908;2022-10-16T05:38:34;101698.63;;;13.38;100.00
9750;BME280;4914;43.218;27.908;2022-10-16T05:41:02;101703.03;;;13.14;100.00
9750;BME280;4914;43.218;27.908;2022-10-16T05:43:30;101694.88;;;13.02;100.00
9750;BME280;4914;43.218;27.908;2022-10-16T05:46:00;101705.69;;;13.14;100.00
9750;BME280;4914;43.218;27.908;2022-10-16T05:48:27;101719.66;;;13.17;100.00
9750;BME280;4914;43.218;27.908;2022-10-16T05:50:58;101703.00;;;13.26;100.00
9750;BME280;4914;43.218;27.908;2022-10-16T05:53:26;101716.03;;;13.31;100.00
9750;BME280;4914;43.218;27.908;2022-10-16T05:55:53;101722.44;;;13.28;100.00
9750;BME280;4914;43.218;27.908;2022-10-16T05:58:22;101718.31;;;13.61;100.00
9750;BME280;4914;43.218;27.908;2022-10-16T06:00:55;101729.84;;;13.61;100.00
9750;BME280;4914;43.218;27.908;2022-10-16T06:03:22;101729.75;;;13.50;100.00
9750;BME280;4914;43.218;27.908;2022-10-16T06:05:50;101732.13;;;13.78;99.74
9750;BME280;4914;43.218;27.908;2022-10-16T06:08:17;101737.06;;;13.72;99.31
9750;BME280;4914;43.218;27.908;2022-10-16T06:10:45;101734.44;;;13.59;100.00
9750;BME280;4914;43.218;27.908;2022-10-16T06:13:12;101739.53;;;13.62;100.00
9750;BME280;4914;43.218;27.908;2022-10-16T06:15:41;101723.75;;;13.59;100.00
9750;BME280;4914;43.218;27.908;2022-10-16T06:18:09;101733.63;;;13.82;98.49
9750;BME280;4914;43.218;27.908;2022-10-16T06:20:36;101739.03;;;13.57;99.93
9750;BME280;4914;43.218;27.908;2022-10-16T06:23:03;101733.91;;;13.67;100.00
9750;BME280;4914;43.218;27.908;2022-10-16T06:25:30;101738.78;;;13.73;100.00
9750;BME280;4914;43.218;27.908;2022-10-16T06:27:57;101744.19;;;13.47;100.00
9750;BME280;4914;43.218;27.908;2022-10-16T06:30:24;101745.22;;;13.58;100.00
9750;BME280;4914;43.218;27.908;2022-10-16T06:32:52;101732.81;;;13.69;100.00
9750;BME280;4914;43.218;27.908;2022-10-16T06:35:19;101743.09;;;13.86;100.00
9750;BME280;4914;43.218;27.908;2022-10-16T06:37:46;101717.59;;;14.30;100.00
9750;BME280;4914;43.218;27.908;2022-10-16T06:40:13;101747.69;;;14.45;97.73
9750;BME280;4914;43.218;27.908;2022-10-16T06:42:40;101740.44;;;14.47;97.97
9750;BME280;4914;43.218;27.908;2022-10-16T06:45:08;101754.41;;;14.50;98.38
9750;BME280;4914;43.218;27.908;2022-10-16T06:47:35;101750.75;;;14.75;96.48
9750;BME280;4914;43.218;27.908;2022-10-16T06:50:04;101746.53;;;14.95;94.14
9750;BME280;4914;43.218;27.908;2022-10-16T06:52:32;101762.16;;;15.34;92.52
9750;BME280;4914;43.218;27.908;2022-10-16T06:54:59;101758.06;;;15.52;89.07
9750;BME280;4914;43.218;27.908;2022-10-16T06:57:26;101757.06;;;15.64;87.65
9750;BME280;4914;43.218;27.908;2022-10-16T06:59:53;101769.00;;;15.72;86.69
9750;BME280;4914;43.218;27.908;2022-10-16T07:02:19;101761.94;;;15.82;86.79
9750;BME280;4914;43.218;27.908;2022-10-16T07:04:46;101777.22;;;16.02;84.67
9750;BME280;4914;43.218;27.908;2022-10-16T07:07:14;101772.91;;;16.22;82.87
9750;BME280;4914;43.218;27.908;2022-10-16T07:09:41;101761.50;;;16.40;83.21
9750;BME280;4914;43.218;27.908;2022-10-16T07:12:08;101775.19;;;16.69;78.41
9750;BME280;4914;43.218;27.908;2022-10-16T07:14:35;101763.06;;;16.86;76.00
9750;BME280;4914;43.218;27.908;2022-10-16T07:17:02;101771.00;;;17.18;74.61
9750;BME280;4914;43.218;27.908;2022-10-16T07:19:29;101771.16;;;17.16;73.18
9750;BME280;4914;43.218;27.908;2022-10-16T07:21:56;101776.13;;;17.51;70.17
9750;BME280;4914;43.218;27.908;2022-10-16T07:24:24;101789.09;;;17.97;66.06
9750;BME280;4914;43.218;27.908;2022-10-16T07:26:51;101784.00;;;18.04;65.52
9750;BME280;4914;43.218;27.908;2022-10-16T07:29:19;101774.56;;;18.48;64.48
9750;BME280;4914;43.218;27.908;2022-10-16T07:31:48;101773.47;;;18.98;60.97
9750;BME280;4914;43.218;27.908;2022-10-16T07:34:16;101769.06;;;19.07;59.69
9750;BME280;4914;43.218;27.908;2022-10-16T07:36:43;101764.78;;;19.04;58.19
9750;BME280;4914;43.218;27.908;2022-10-16T07:39:11;101772.94;;;19.51;57.89
9750;BME280;4914;43.218;27.908;2022-10-16T07:41:39;101780.81;;;20.17;55.65
9750;BME280;4914;43.218;27.908;2022-10-16T07:44:06;101773.28;;;20.73;52.32
9750;BME280;4914;43.218;27.908;2022-10-16T07:46:33;101777.75;;;20.82;52.07
9750;BME280;4914;43.218;27.908;2022-10-16T07:49:01;101778.88;;;21.67;50.38
9750;BME280;4914;43.218;27.908;2022-10-16T07:51:28;101790.19;;;22.71;47.74
9750;BME280;4914;43.218;27.908;2022-10-16T07:53:55;101787.28;;;23.45;46.04
9750;BME280;4914;43.218;27.908;2022-10-16T07:56:22;101772.06;;;23.83;44.50
9750;BME280;4914;43.218;27.908;2022-10-16T07:58:51;101785.13;;;24.10;43.66
9750;BME280;4914;43.218;27.908;2022-10-16T08:01:18;101771.72;;;24.93;42.22
9750;BME280;4914;43.218;27.908;2022-10-16T08:03:48;101769.44;;;25.49;41.12
9750;BME280;4914;43.218;27.908;2022-10-16T08:06:15;101768.84;;;25.53;39.99
9750;BME280;4914;43.218;27.908;2022-10-16T08:08:42;101779.09;;;25.81;39.78
9750;BME280;4914;43.218;27.908;2022-10-16T08:11:09;101777.84;;;26.70;38.08
9750;BME280;4914;43.218;27.908;2022-10-16T08:13:37;101779.97;;;26.96;37.83
9750;BME280;4914;43.218;27.908;2022-10-16T08:16:05;101776.66;;;25.71;38.13
9750;BME280;4914;43.218;27.908;2022-10-16T08:18:34;101773.63;;;25.07;38.17
9750;BME280;4914;43.218;27.908;2022-10-16T08:21:01;101770.50;;;25.10;39.44
9750;BME280;4914;43.218;27.908;2022-10-16T08:23:29;101786.44;;;26.31;37.52
9750;BME280;4914;43.218;27.908;2022-10-16T08:26:01;101771.16;;;26.51;36.62
9750;BME280;4914;43.218;27.908;2022-10-16T08:28:28;101771.66;;;27.31;35.93
9750;BME280;4914;43.218;27.908;2022-10-16T08:30:55;101776.63;;;26.94;35.86
9750;BME280;4914;43.218;27.908;2022-10-16T08:33:23;101779.88;;;27.72;34.73
9750;BME280;4914;43.218;27.908;2022-10-16T08:35:51;101768.50;;;28.10;34.16
9750;BME280;4914;43.218;27.908;2022-10-16T08:38:19;101773.13;;;28.77;33.23
9750;BME280;4914;43.218;27.908;2022-10-16T08:40:46;101777.97;;;29.34;32.79
9750;BME280;4914;43.218;27.908;2022-10-16T08:43:37;101771.19;;;29.23;32.09
9750;BME280;4914;43.218;27.908;2022-10-16T08:46:17;101773.63;;;28.26;32.65
9750;BME280;4914;43.218;27.908;2022-10-16T08:48:50;101787.56;;;26.36;34.94
9750;BME280;4914;43.218;27.908;2022-10-16T08:51:20;101794.84;;;26.51;34.72
9750;BME280;4914;43.218;27.908;2022-10-16T08:53:52;101784.72;;;28.11;33.35
9750;BME280;4914;43.218;27.908;2022-10-16T08:56:20;101791.00;;;28.86;32.07
9750;BME280;4914;43.218;27.908;2022-10-16T08:58:48;101795.22;;;28.82;31.49
9750;BME280;4914;43.218;27.908;2022-10-16T09:01:17;101792.78;;;28.33;32.33
9750;BME280;4914;43.218;27.908;2022-10-16T09:06:52;101788.78;;;27.81;31.71
9750;BME280;4914;43.218;27.908;2022-10-16T09:09:34;101790.88;;;28.40;31.95
9750;BME280;4914;43.218;27.908;2022-10-16T09:12:10;101787.84;;;28.76;31.28
9750;BME280;4914;43.218;27.908;2022-10-16T09:14:59;101799.09;;;28.33;31.16
9750;BME280;4914;43.218;27.908;2022-10-16T09:17:36;101791.34;;;28.50;31.65
9750;BME280;4914;43.218;27.908;2022-10-16T09:20:19;101794.16;;;28.89;30.99
9750;BME280;4914;43.218;27.908;2022-10-16T09:22:51;101786.56;;;28.98;30.76
9750;BME280;4914;43.218;27.908;2022-10-16T09:25:21;101791.06;;;28.25;31.50
9750;BME280;4914;43.218;27.908;2022-10-16T09:27:52;101789.59;;;28.23;31.15
9750;BME280;4914;43.218;27.908;2022-10-16T09:30:21;101774.97;;;27.27;32.25
9750;BME280;4914;43.218;27.908;2022-10-16T09:32:50;101793.75;;;28.86;30.89
9750;BME280;4914;43.218;27.908;2022-10-16T09:35:20;101799.13;;;28.59;30.81
9750;BME280;4914;43.218;27.908;2022-10-16T09:37:51;101787.41;;;29.38;30.26
9750;BME280;4914;43.218;27.908;2022-10-16T09:40:26;101791.38;;;28.70;30.65
9750;BME280;4914;43.218;27.908;2022-10-16T09:43:00;101782.56;;;28.87;30.40
9750;BME280;4914;43.218;27.908;2022-10-16T09:45:29;101793.09;;;28.97;30.65
9750;BME280;4914;43.218;27.908;2022-10-16T09:47:56;101775.38;;;29.45;29.97
9750;BME280;4914;43.218;27.908;2022-10-16T09:50:25;101777.97;;;29.98;29.67
9750;BME280;4914;43.218;27.908;2022-10-16T09:53:08;101783.06;;;29.95;28.97
9750;BME280;4914;43.218;27.908;2022-10-16T09:55:47;101777.31;;;29.19;30.22
9750;BME280;4914;43.218;27.908;2022-10-16T09:58:14;101783.91;;;29.88;29.18
9750;BME280;4914;43.218;27.908;2022-10-16T10:00:41;101782.97;;;30.14;28.75
9750;BME280;4914;43.218;27.908;2022-10-16T10:03:33;101772.97;;;29.88;28.79
9750;BME280;4914;43.218;27.908;2022-10-16T10:06:14;101780.38;;;29.75;28.85
9750;BME280;4914;43.218;27.908;2022-10-16T10:08:53;101779.06;;;29.97;28.50
9750;BME280;4914;43.218;27.908;2022-10-16T10:11:42;101785.78;;;30.01;28.92
9750;BME280;4914;43.218;27.908;2022-10-16T10:14:16;101779.66;;;29.99;28.97
9750;BME280;4914;43.218;27.908;2022-10-16T10:16:44;101783.25;;;30.38;28.66
9750;BME280;4914;43.218;27.908;2022-10-16T10:19:15;101785.69;;;30.59;28.29
9750;BME280;4914;43.218;27.908;2022-10-16T10:21:43;101763.97;;;30.19;28.55
9750;BME280;4914;43.218;27.908;2022-10-16T10:24:11;101771.53;;;28.28;29.93
9750;BME280;4914;43.218;27.908;2022-10-16T10:26:44;101764.72;;;28.72;29.89
9750;BME280;4914;43.218;27.908;2022-10-16T10:29:20;101769.66;;;29.73;29.20
9750;BME280;4914;43.218;27.908;2022-10-16T10:31:59;101770.13;;;29.51;28.65
9750;BME280;4914;43.218;27.908;2022-10-16T10:34:42;101771.41;;;29.41;29.28
9750;BME280;4914;43.218;27.908;2022-10-16T10:37:25;101786.88;;;29.87;29.01
9750;BME280;4914;43.218;27.908;2022-10-16T10:40:00;101781.88;;;29.64;28.97
9750;BME280;4914;43.218;27.908;2022-10-16T10:42:34;101783.47;;;28.14;29.61
9750;BME280;4914;43.218;27.908;2022-10-16T10:45:17;101775.41;;;28.67;29.52
9750;BME280;4914;43.218;27.908;2022-10-16T10:47:56;101766.13;;;27.25;30.93
9750;BME280;4914;43.218;27.908;2022-10-16T10:50:32;101774.84;;;27.69;30.82
9750;BME280;4914;43.218;27.908;2022-10-16T10:53:06;101766.94;;;27.88;30.26
9750;BME280;4914;43.218;27.908;2022-10-16T10:55:40;101772.69;;;26.81;31.43
9750;BME280;4914;43.218;27.908;2022-10-16T10:58:31;101769.28;;;26.52;32.21
9750;BME280;4914;43.218;27.908;2022-10-16T11:01:07;101761.34;;;26.99;31.49
9750;BME280;4914;43.218;27.908;2022-10-16T11:06:40;101745.94;;;28.55;29.89
9750;BME280;4914;43.218;27.908;2022-10-16T11:09:13;101751.94;;;29.69;29.12
9750;BME280;4914;43.218;27.908;2022-10-16T11:11:45;101745.97;;;29.34;28.87
9750;BME280;4914;43.218;27.908;2022-10-16T11:14:18;101754.72;;;29.63;28.55
9750;BME280;4914;43.218;27.908;2022-10-16T11:16:51;101753.38;;;30.29;28.10
9750;BME280;4914;43.218;27.908;2022-10-16T11:19:25;101756.19;;;30.54;27.44
9750;BME280;4914;43.218;27.908;2022-10-16T11:22:01;101758.03;;;29.78;28.33
9750;BME280;4914;43.218;27.908;2022-10-16T11:24:36;101767.16;;;29.52;28.21
9750;BME280;4914;43.218;27.908;2022-10-16T11:27:09;101765.53;;;28.79;28.73
9750;BME280;4914;43.218;27.908;2022-10-16T11:29:46;101759.88;;;28.87;28.83
9750;BME280;4914;43.218;27.908;2022-10-16T11:32:22;101767.31;;;29.70;28.26
9750;BME280;4914;43.218;27.908;2022-10-16T11:34:54;101768.38;;;28.31;29.44
9750;BME280;4914;43.218;27.908;2022-10-16T11:37:26;101771.34;;;28.49;28.44
9750;BME280;4914;43.218;27.908;2022-10-16T11:40:04;101767.41;;;27.29;29.92
9750;BME280;4914;43.218;27.908;2022-10-16T11:42:41;101760.31;;;28.10;29.67
9750;BME280;4914;43.218;27.908;2022-10-16T11:45:23;101759.00;;;29.19;28.75
9750;BME280;4914;43.218;27.908;2022-10-16T11:48:00;101761.91;;;30.08;28.03
9750;BME280;4914;43.218;27.908;2022-10-16T11:50:32;101756.03;;;30.49;27.95
9750;BME280;4914;43.218;27.908;2022-10-16T11:53:05;101758.50;;;30.19;27.74
9750;BME280;4914;43.218;27.908;2022-10-16T11:55:39;101755.97;;;29.60;27.92
9750;BME280;4914;43.218;27.908;2022-10-16T11:58:12;101758.63;;;29.93;27.41
9750;BME280;4914;43.218;27.908;2022-10-16T12:00:46;101750.19;;;29.30;28.22
9750;BME280;4914;43.218;27.908;2022-10-16T12:03:21;101749.53;;;29.35;28.15
9750;BME280;4914;43.218;27.908;2022-10-16T12:06:06;101751.19;;;29.42;27.60
9750;BME280;4914;43.218;27.908;2022-10-16T12:08:39;101743.25;;;29.79;27.07
9750;BME280;4914;43.218;27.908;2022-10-16T12:11:19;101760.50;;;28.95;28.21
9750;BME280;4914;43.218;27.908;2022-10-16T12:13:47;101767.00;;;29.14;28.08
9750;BME280;4914;43.218;27.908;2022-10-16T12:16:22;101761.75;;;28.93;29.04
9750;BME280;4914;43.218;27.908;2022-10-16T12:19:07;101757.50;;;28.57;29.19
9750;BME280;4914;43.218;27.908;2022-10-16T12:21:36;101759.38;;;28.50;29.46
9750;BME280;4914;43.218;27.908;2022-10-16T12:24:04;101761.34;;;26.99;30.89
9750;BME280;4914;43.218;27.908;2022-10-16T12:26:34;101759.59;;;26.70;31.25
9750;BME280;4914;43.218;27.908;2022-10-16T12:29:14;101768.53;;;26.22;32.63
9750;BME280;4914;43.218;27.908;2022-10-16T12:31:46;101771.56;;;25.39;33.06
9750;BME280;4914;43.218;27.908;2022-10-16T12:34:21;101778.47;;;24.74;33.84
9750;BME280;4914;43.218;27.908;2022-10-16T12:36:50;101780.38;;;24.20;34.35
9750;BME280;4914;43.218;27.908;2022-10-16T12:39:21;101786.84;;;23.72;35.20
9750;BME280;4914;43.218;27.908;2022-10-16T12:42:00;101786.84;;;23.72;34.41
9750;BME280;4914;43.218;27.908;2022-10-16T12:44:46;101787.03;;;23.63;35.25
9750;BME280;4914;43.218;27.908;2022-10-16T12:47:21;101792.47;;;23.63;35.12
9750;BME280;4914;43.218;27.908;2022-10-16T12:49:49;101792.72;;;23.04;35.93
9750;BME280;4914;43.218;27.908;2022-10-16T12:52:26;101797.13;;;22.81;36.04
9750;BME280;4914;43.218;27.908;2022-10-16T12:54:57;101797.44;;;22.78;37.01
9750;BME280;4914;43.218;27.908;2022-10-16T12:57:42;101789.16;;;22.64;37.10
9750;BME280;4914;43.218;27.908;2022-10-16T13:00:22;101791.78;;;22.23;37.43
9750;BME280;4914;43.218;27.908;2022-10-16T13:03:02;101799.72;;;22.25;38.27
9750;BME280;4914;43.218;27.908;2022-10-16T13:05:45;101799.91;;;22.31;37.59
9750;BME280;4914;43.218;27.908;2022-10-16T13:08:30;101803.25;;;22.17;37.92
9750;BME280;4914;43.218;27.908;2022-10-16T13:11:07;101792.41;;;22.17;38.21
9750;BME280;4914;43.218;27.908;2022-10-16T13:13:54;101787.66;;;22.11;37.67
9750;BME280;4914;43.218;27.908;2022-10-16T13:16:30;101793.41;;;22.08;37.91
9750;BME280;4914;43.218;27.908;2022-10-16T13:19:10;101796.09;;;22.00;38.31